createdAt,value
2023-04-22T00:25:45.359Z,11
2023-04-22T00:54:50.648Z,10
2023-04-22T01:23:48.813Z,9
2023-04-22T01:52:55.481Z,9
2023-04-22T02:21:59.596Z,8
2023-04-22T02:51:02.597Z,8
2023-04-22T03:20:09.569Z,8
2023-04-22T03:49:14.304Z,8
2023-04-22T04:18:20.043Z,7
2023-04-22T04:47:31.999Z,7
2023-04-22T05:16:28.025Z,7
2023-04-22T05:45:28.440Z,7
2023-04-22T06:14:53.948Z,7
2023-04-22T06:44:00.347Z,5
2023-04-22T07:13:06.909Z,6
2023-04-22T07:42:19.131Z,6
2023-04-22T08:11:04.215Z,11
2023-04-22T08:39:45.930Z,13
2023-04-22T09:09:10.222Z,11
2023-04-22T09:38:36.592Z,9
2023-04-22T10:07:01.933Z,7
2023-04-22T10:36:16.264Z,6
2023-04-22T11:05:02.332Z,7
2023-04-22T11:34:06.953Z,4
2023-04-22T12:03:01.430Z,5
2023-04-22T12:31:35.017Z,4
2023-04-22T13:00:31.865Z,6
2023-04-22T13:29:25.922Z,5
2023-04-22T13:58:31.271Z,6
2023-04-22T14:27:35.031Z,5
2023-04-22T14:56:33.227Z,5
2023-04-22T15:25:26.722Z,5
2023-04-22T15:54:21.028Z,5
2023-04-22T16:22:25.650Z,7
2023-04-22T16:51:09.032Z,8
2023-04-22T17:19:50.846Z,6
2023-04-22T17:48:39.868Z,7
2023-04-22T18:17:46.599Z,7
2023-04-22T18:46:25.824Z,8
2023-04-22T19:15:02.963Z,7
2023-04-22T19:43:24.373Z,8
2023-04-22T20:11:46.781Z,8
2023-04-22T20:40:48.741Z,11
2023-04-22T21:09:39.655Z,8
2023-04-22T21:38:00.026Z,8
2023-04-22T22:06:21.796Z,8
2023-04-22T22:34:40.432Z,10
2023-04-22T23:02:49.999Z,10
2023-04-22T23:30:59.788Z,11
2023-04-22T23:59:16.817Z,11
